sensor_id;sensor_type;location;lat;lon;timestamp;P1;durP1;ratioP1;P2;durP2;ratioP2
62572;SDS011;48626;51.678;5.806;2022-08-21T00:00:14;12.52;;;5.40;;
62572;SDS011;48626;51.678;5.806;2022-08-21T00:02:50;12.45;;;5.82;;
62572;SDS011;48626;51.678;5.806;2022-08-21T00:05:21;11.55;;;5.63;;
62572;SDS011;48626;51.678;5.806;2022-08-21T00:07:47;13.20;;;5.43;;
62572;SDS011;48626;51.678;5.806;2022-08-21T00:10:13;10.57;;;4.55;;
62572;SDS011;48626;51.678;5.806;2022-08-21T00:12:41;15.57;;;4.93;;
62572;SDS011;48626;51.678;5.806;2022-08-21T00:15:08;11.68;;;5.15;;
62572;SDS011;48626;51.678;5.806;2022-08-21T00:17:38;10.93;;;4.88;;
62572;SDS011;48626;51.678;5.806;2022-08-21T00:20:05;11.23;;;4.63;;
62572;SDS011;48626;51.678;5.806;2022-08-21T00:22:33;9.60;;;5.25;;
62572;SDS011;48626;51.678;5.806;2022-08-21T00:24:59;10.95;;;5.57;;
62572;SDS011;48626;51.678;5.806;2022-08-21T00:27:24;13.23;;;5.20;;
62572;SDS011;48626;51.678;5.806;2022-08-21T00:29:50;8.18;;;5.03;;
62572;SDS011;48626;51.678;5.806;2022-08-21T00:32:20;11.63;;;4.85;;
62572;SDS011;48626;51.678;5.806;2022-08-21T00:34:47;9.20;;;5.22;;
62572;SDS011;48626;51.678;5.806;2022-08-21T00:37:13;9.27;;;5.20;;
62572;SDS011;48626;51.678;5.806;2022-08-21T00:39:39;8.25;;;5.10;;
62572;SDS011;48626;51.678;5.806;2022-08-21T00:42:04;10.38;;;4.97;;
62572;SDS011;48626;51.678;5.806;2022-08-21T00:44:30;10.80;;;5.30;;
62572;SDS011;48626;51.678;5.806;2022-08-21T00:46:56;8.70;;;4.70;;
62572;SDS011;48626;51.678;5.806;2022-08-21T00:49:22;9.98;;;5.10;;
62572;SDS011;48626;51.678;5.806;2022-08-21T00:51:55;9.82;;;5.15;;
62572;SDS011;48626;51.678;5.806;2022-08-21T00:54:24;10.55;;;4.47;;
62572;SDS011;48626;51.678;5.806;2022-08-21T00:56:56;10.75;;;5.13;;
62572;SDS011;48626;51.678;5.806;2022-08-21T00:59:25;8.30;;;4.95;;
62572;SDS011;48626;51.678;5.806;2022-08-21T01:01:52;6.90;;;4.38;;
62572;SDS011;48626;51.678;5.806;2022-08-21T01:04:19;10.23;;;5.10;;
62572;SDS011;48626;51.678;5.806;2022-08-21T01:06:45;9.57;;;4.72;;
62572;SDS011;48626;51.678;5.806;2022-08-21T01:09:11;6.65;;;4.43;;
62572;SDS011;48626;51.678;5.806;2022-08-21T01:11:38;7.15;;;4.55;;
62572;SDS011;48626;51.678;5.806;2022-08-21T01:14:06;9.80;;;4.40;;
62572;SDS011;48626;51.678;5.806;2022-08-21T01:16:32;10.98;;;4.78;;
62572;SDS011;48626;51.678;5.806;2022-08-21T01:18:58;8.15;;;4.97;;
62572;SDS011;48626;51.678;5.806;2022-08-21T01:21:25;9.75;;;4.38;;
62572;SDS011;48626;51.678;5.806;2022-08-21T01:23:52;9.85;;;4.90;;
62572;SDS011;48626;51.678;5.806;2022-08-21T01:26:23;8.70;;;4.70;;
62572;SDS011;48626;51.678;5.806;2022-08-21T01:28:56;10.57;;;4.35;;
62572;SDS011;48626;51.678;5.806;2022-08-21T01:31:26;7.18;;;4.45;;
62572;SDS011;48626;51.678;5.806;2022-08-21T01:33:53;10.00;;;5.05;;
62572;SDS011;48626;51.678;5.806;2022-08-21T01:36:20;9.55;;;4.38;;
62572;SDS011;48626;51.678;5.806;2022-08-21T01:38:46;10.25;;;4.78;;
62572;SDS011;48626;51.678;5.806;2022-08-21T01:41:12;8.82;;;5.35;;
62572;SDS011;48626;51.678;5.806;2022-08-21T01:43:39;10.60;;;4.68;;
62572;SDS011;48626;51.678;5.806;2022-08-21T01:46:05;10.27;;;5.00;;
62572;SDS011;48626;51.678;5.806;2022-08-21T01:48:31;13.18;;;5.15;;
62572;SDS011;48626;51.678;5.806;2022-08-21T01:50:57;12.15;;;5.40;;
62572;SDS011;48626;51.678;5.806;2022-08-21T01:53:23;11.45;;;5.28;;
62572;SDS011;48626;51.678;5.806;2022-08-21T01:55:48;8.80;;;5.20;;
62572;SDS011;48626;51.678;5.806;2022-08-21T01:58:14;8.43;;;5.15;;
62572;SDS011;48626;51.678;5.806;2022-08-21T02:00:39;9.45;;;5.13;;
62572;SDS011;48626;51.678;5.806;2022-08-21T02:03:05;13.10;;;5.65;;
62572;SDS011;48626;51.678;5.806;2022-08-21T02:05:32;14.02;;;5.50;;
62572;SDS011;48626;51.678;5.806;2022-08-21T02:07:57;8.23;;;5.07;;
62572;SDS011;48626;51.678;5.806;2022-08-21T02:10:25;10.43;;;5.40;;
62572;SDS011;48626;51.678;5.806;2022-08-21T02:12:54;12.50;;;6.00;;
62572;SDS011;48626;51.678;5.806;2022-08-21T02:15:20;8.38;;;5.35;;
62572;SDS011;48626;51.678;5.806;2022-08-21T02:17:51;11.75;;;5.65;;
62572;SDS011;48626;51.678;5.806;2022-08-21T02:20:26;12.30;;;5.53;;
62572;SDS011;48626;51.678;5.806;2022-08-21T02:22:59;11.48;;;6.40;;
62572;SDS011;48626;51.678;5.806;2022-08-21T02:25:26;11.90;;;6.00;;
62572;SDS011;48626;51.678;5.806;2022-08-21T02:27:53;10.02;;;6.10;;
62572;SDS011;48626;51.678;5.806;2022-08-21T02:30:24;9.13;;;6.15;;
62572;SDS011;48626;51.678;5.806;2022-08-21T02:32:51;14.23;;;7.32;;
62572;SDS011;48626;51.678;5.806;2022-08-21T02:35:17;11.10;;;6.70;;
62572;SDS011;48626;51.678;5.806;2022-08-21T02:37:48;14.10;;;6.68;;
62572;SDS011;48626;51.678;5.806;2022-08-21T02:40:21;10.82;;;6.47;;
62572;SDS011;48626;51.678;5.806;2022-08-21T02:42:49;13.23;;;6.63;;
62572;SDS011;48626;51.678;5.806;2022-08-21T02:45:15;11.77;;;6.13;;
62572;SDS011;48626;51.678;5.806;2022-08-21T02:47:52;11.68;;;6.72;;
62572;SDS011;48626;51.678;5.806;2022-08-21T02:50:28;11.23;;;6.50;;
62572;SDS011;48626;51.678;5.806;2022-08-21T02:52:58;12.23;;;6.45;;
62572;SDS011;48626;51.678;5.806;2022-08-21T02:55:25;13.43;;;6.43;;
62572;SDS011;48626;51.678;5.806;2022-08-21T02:57:53;10.27;;;6.15;;
62572;SDS011;48626;51.678;5.806;2022-08-21T03:00:20;9.98;;;6.05;;
62572;SDS011;48626;51.678;5.806;2022-08-21T03:02:48;14.85;;;6.93;;
62572;SDS011;48626;51.678;5.806;2022-08-21T03:05:14;10.95;;;6.20;;
62572;SDS011;48626;51.678;5.806;2022-08-21T03:07:40;17.60;;;6.88;;
62572;SDS011;48626;51.678;5.806;2022-08-21T03:10:07;11.55;;;6.70;;
62572;SDS011;48626;51.678;5.806;2022-08-21T03:12:34;11.65;;;6.60;;
62572;SDS011;48626;51.678;5.806;2022-08-21T03:15:04;14.45;;;6.30;;
62572;SDS011;48626;51.678;5.806;2022-08-21T03:17:31;11.30;;;6.65;;
62572;SDS011;48626;51.678;5.806;2022-08-21T03:19:58;12.98;;;6.30;;
62572;SDS011;48626;51.678;5.806;2022-08-21T03:22:24;10.23;;;6.28;;
62572;SDS011;48626;51.678;5.806;2022-08-21T03:24:51;13.45;;;6.20;;
62572;SDS011;48626;51.678;5.806;2022-08-21T03:27:17;12.98;;;6.63;;
62572;SDS011;48626;51.678;5.806;2022-08-21T03:29:43;10.70;;;6.18;;
62572;SDS011;48626;51.678;5.806;2022-08-21T03:32:08;15.00;;;6.50;;
62572;SDS011;48626;51.678;5.806;2022-08-21T03:34:34;10.90;;;5.97;;
62572;SDS011;48626;51.678;5.806;2022-08-21T03:37:01;10.60;;;6.35;;
62572;SDS011;48626;51.678;5.806;2022-08-21T03:39:28;12.77;;;6.82;;
62572;SDS011;48626;51.678;5.806;2022-08-21T03:41:54;11.80;;;6.60;;
62572;SDS011;48626;51.678;5.806;2022-08-21T03:44:20;12.32;;;6.43;;
62572;SDS011;48626;51.678;5.806;2022-08-21T03:46:45;12.40;;;6.63;;
62572;SDS011;48626;51.678;5.806;2022-08-21T03:49:11;10.95;;;6.10;;
62572;SDS011;48626;51.678;5.806;2022-08-21T03:51:38;10.38;;;6.03;;
62572;SDS011;48626;51.678;5.806;2022-08-21T03:54:03;10.82;;;5.45;;
62572;SDS011;48626;51.678;5.806;2022-08-21T03:56:29;12.82;;;6.10;;
62572;SDS011;48626;51.678;5.806;2022-08-21T03:58:55;9.75;;;5.47;;
62572;SDS011;48626;51.678;5.806;2022-08-21T04:01:21;11.23;;;5.82;;
62572;SDS011;48626;51.678;5.806;2022-08-21T04:03:47;12.40;;;5.80;;
62572;SDS011;48626;51.678;5.806;2022-08-21T04:06:12;10.35;;;6.00;;
62572;SDS011;48626;51.678;5.806;2022-08-21T04:08:38;10.57;;;5.60;;
62572;SDS011;48626;51.678;5.806;2022-08-21T04:11:04;9.65;;;5.85;;
62572;SDS011;48626;51.678;5.806;2022-08-21T04:13:31;17.77;;;6.35;;
62572;SDS011;48626;51.678;5.806;2022-08-21T04:15:57;11.00;;;5.97;;
62572;SDS011;48626;51.678;5.806;2022-08-21T04:18:25;11.80;;;6.22;;
62572;SDS011;48626;51.678;5.806;2022-08-21T04:20:51;15.32;;;6.35;;
62572;SDS011;48626;51.678;5.806;2022-08-21T04:23:19;10.70;;;6.47;;
62572;SDS011;48626;51.678;5.806;2022-08-21T04:25:45;11.27;;;6.13;;
62572;SDS011;48626;51.678;5.806;2022-08-21T04:28:11;14.48;;;6.57;;
62572;SDS011;48626;51.678;5.806;2022-08-21T04:30:36;10.82;;;5.93;;
62572;SDS011;48626;51.678;5.806;2022-08-21T04:33:02;9.20;;;6.13;;
62572;SDS011;48626;51.678;5.806;2022-08-21T04:35:28;10.65;;;6.38;;
62572;SDS011;48626;51.678;5.806;2022-08-21T04:37:55;9.77;;;5.95;;
62572;SDS011;48626;51.678;5.806;2022-08-21T04:40:21;9.82;;;6.28;;
62572;SDS011;48626;51.678;5.806;2022-08-21T04:42:53;11.93;;;6.10;;
62572;SDS011;48626;51.678;5.806;2022-08-21T04:45:23;12.85;;;6.60;;
62572;SDS011;48626;51.678;5.806;2022-08-21T04:47:51;13.20;;;6.75;;
62572;SDS011;48626;51.678;5.806;2022-08-21T04:50:18;10.68;;;6.93;;
62572;SDS011;48626;51.678;5.806;2022-08-21T04:52:47;11.60;;;7.25;;
62572;SDS011;48626;51.678;5.806;2022-08-21T04:55:13;13.18;;;7.07;;
62572;SDS011;48626;51.678;5.806;2022-08-21T04:57:41;14.73;;;7.78;;
62572;SDS011;48626;51.678;5.806;2022-08-21T05:00:07;13.60;;;7.88;;
62572;SDS011;48626;51.678;5.806;2022-08-21T05:02:35;14.07;;;8.07;;
62572;SDS011;48626;51.678;5.806;2022-08-21T05:05:02;13.70;;;7.95;;
62572;SDS011;48626;51.678;5.806;2022-08-21T05:07:29;15.25;;;7.75;;
62572;SDS011;48626;51.678;5.806;2022-08-21T05:09:55;12.98;;;8.02;;
62572;SDS011;48626;51.678;5.806;2022-08-21T05:12:22;12.77;;;8.13;;
62572;SDS011;48626;51.678;5.806;2022-08-21T05:14:48;13.73;;;8.43;;
62572;SDS011;48626;51.678;5.806;2022-08-21T05:17:14;13.85;;;8.90;;
62572;SDS011;48626;51.678;5.806;2022-08-21T05:19:39;18.02;;;8.80;;
62572;SDS011;48626;51.678;5.806;2022-08-21T05:22:05;13.45;;;9.13;;
62572;SDS011;48626;51.678;5.806;2022-08-21T05:24:31;16.38;;;9.68;;
62572;SDS011;48626;51.678;5.806;2022-08-21T05:26:57;16.67;;;9.18;;
62572;SDS011;48626;51.678;5.806;2022-08-21T05:29:23;19.02;;;9.07;;
62572;SDS011;48626;51.678;5.806;2022-08-21T05:31:49;14.07;;;9.00;;
62572;SDS011;48626;51.678;5.806;2022-08-21T05:34:19;18.63;;;9.77;;
62572;SDS011;48626;51.678;5.806;2022-08-21T05:36:46;15.23;;;9.63;;
62572;SDS011;48626;51.678;5.806;2022-08-21T05:39:13;14.82;;;9.52;;
62572;SDS011;48626;51.678;5.806;2022-08-21T05:41:39;12.35;;;9.38;;
62572;SDS011;48626;51.678;5.806;2022-08-21T05:44:04;18.88;;;9.45;;
62572;SDS011;48626;51.678;5.806;2022-08-21T05:46:30;15.65;;;9.20;;
62572;SDS011;48626;51.678;5.806;2022-08-21T05:48:56;17.45;;;10.23;;
62572;SDS011;48626;51.678;5.806;2022-08-21T05:51:21;13.95;;;8.38;;
62572;SDS011;48626;51.678;5.806;2022-08-21T05:53:47;15.32;;;9.30;;
62572;SDS011;48626;51.678;5.806;2022-08-21T05:56:13;14.18;;;8.88;;
62572;SDS011;48626;51.678;5.806;2022-08-21T05:58:39;21.92;;;9.77;;
62572;SDS011;48626;51.678;5.806;2022-08-21T06:01:05;18.35;;;9.68;;
62572;SDS011;48626;51.678;5.806;2022-08-21T06:03:34;15.35;;;9.25;;
62572;SDS011;48626;51.678;5.806;2022-08-21T06:06:01;18.25;;;9.25;;
62572;SDS011;48626;51.678;5.806;2022-08-21T06:08:27;16.90;;;9.55;;
62572;SDS011;48626;51.678;5.806;2022-08-21T06:10:54;14.77;;;9.05;;
62572;SDS011;48626;51.678;5.806;2022-08-21T06:13:22;17.45;;;8.80;;
62572;SDS011;48626;51.678;5.806;2022-08-21T06:15:48;15.35;;;8.63;;
62572;SDS011;48626;51.678;5.806;2022-08-21T06:18:15;14.75;;;8.52;;
62572;SDS011;48626;51.678;5.806;2022-08-21T06:20:41;13.48;;;8.35;;
62572;SDS011;48626;51.678;5.806;2022-08-21T06:23:07;17.48;;;7.90;;
62572;SDS011;48626;51.678;5.806;2022-08-21T06:25:33;15.57;;;7.60;;
62572;SDS011;48626;51.678;5.806;2022-08-21T06:28:06;16.25;;;8.15;;
62572;SDS011;48626;51.678;5.806;2022-08-21T06:30:34;13.88;;;7.38;;
62572;SDS011;48626;51.678;5.806;2022-08-21T06:33:01;20.48;;;7.70;;
62572;SDS011;48626;51.678;5.806;2022-08-21T06:35:27;17.70;;;7.47;;
62572;SDS011;48626;51.678;5.806;2022-08-21T06:37:54;13.43;;;7.53;;
62572;SDS011;48626;51.678;5.806;2022-08-21T06:40:20;19.15;;;7.88;;
62572;SDS011;48626;51.678;5.806;2022-08-21T06:42:46;18.00;;;7.13;;
62572;SDS011;48626;51.678;5.806;2022-08-21T06:45:12;18.02;;;8.02;;
62572;SDS011;48626;51.678;5.806;2022-08-21T06:47:38;16.95;;;7.72;;
62572;SDS011;48626;51.678;5.806;2022-08-21T06:50:04;14.25;;;7.53;;
62572;SDS011;48626;51.678;5.806;2022-08-21T06:52:33;18.90;;;8.10;;
62572;SDS011;48626;51.678;5.806;2022-08-21T06:55:02;12.70;;;7.53;;
62572;SDS011;48626;51.678;5.806;2022-08-21T06:57:30;14.63;;;7.45;;
62572;SDS011;48626;51.678;5.806;2022-08-21T06:59:56;18.02;;;7.78;;
62572;SDS011;48626;51.678;5.806;2022-08-21T07:02:22;19.35;;;7.35;;
62572;SDS011;48626;51.678;5.806;2022-08-21T07:04:47;24.77;;;8.02;;
62572;SDS011;48626;51.678;5.806;2022-08-21T07:07:13;21.30;;;7.72;;
62572;SDS011;48626;51.678;5.806;2022-08-21T07:09:39;17.05;;;7.20;;
62572;SDS011;48626;51.678;5.806;2022-08-21T07:12:05;17.65;;;7.13;;
62572;SDS011;48626;51.678;5.806;2022-08-21T07:14:31;19.08;;;7.43;;
62572;SDS011;48626;51.678;5.806;2022-08-21T07:16:57;20.75;;;7.60;;
62572;SDS011;48626;51.678;5.806;2022-08-21T07:19:22;21.05;;;7.05;;
62572;SDS011;48626;51.678;5.806;2022-08-21T07:21:48;16.00;;;6.75;;
62572;SDS011;48626;51.678;5.806;2022-08-21T07:24:14;15.00;;;6.72;;
62572;SDS011;48626;51.678;5.806;2022-08-21T07:26:39;17.42;;;7.00;;
62572;SDS011;48626;51.678;5.806;2022-08-21T07:29:06;16.35;;;6.68;;
62572;SDS011;48626;51.678;5.806;2022-08-21T07:31:31;20.73;;;7.57;;
62572;SDS011;48626;51.678;5.806;2022-08-21T07:33:57;17.95;;;6.82;;
62572;SDS011;48626;51.678;5.806;2022-08-21T07:36:23;17.20;;;6.82;;
62572;SDS011;48626;51.678;5.806;2022-08-21T07:38:48;17.48;;;6.82;;
62572;SDS011;48626;51.678;5.806;2022-08-21T07:41:22;18.98;;;6.78;;
62572;SDS011;48626;51.678;5.806;2022-08-21T07:43:49;21.65;;;6.68;;
62572;SDS011;48626;51.678;5.806;2022-08-21T07:46:15;16.08;;;6.78;;
62572;SDS011;48626;51.678;5.806;2022-08-21T07:48:41;15.25;;;6.82;;
62572;SDS011;48626;51.678;5.806;2022-08-21T07:51:08;16.33;;;6.72;;
62572;SDS011;48626;51.678;5.806;2022-08-21T07:53:37;14.75;;;7.00;;
62572;SDS011;48626;51.678;5.806;2022-08-21T07:56:03;19.50;;;6.53;;
62572;SDS011;48626;51.678;5.806;2022-08-21T07:58:31;17.00;;;6.53;;
62572;SDS011;48626;51.678;5.806;2022-08-21T08:00:57;17.88;;;6.05;;
62572;SDS011;48626;51.678;5.806;2022-08-21T08:03:23;15.85;;;6.07;;
62572;SDS011;48626;51.678;5.806;2022-08-21T08:05:49;22.20;;;6.78;;
62572;SDS011;48626;51.678;5.806;2022-08-21T08:08:15;16.27;;;6.43;;
62572;SDS011;48626;51.678;5.806;2022-08-21T08:10:41;15.63;;;6.57;;
62572;SDS011;48626;51.678;5.806;2022-08-21T08:13:08;18.83;;;6.18;;
62572;SDS011;48626;51.678;5.806;2022-08-21T08:15:33;23.65;;;6.88;;
62572;SDS011;48626;51.678;5.806;2022-08-21T08:18:00;17.25;;;5.93;;
62572;SDS011;48626;51.678;5.806;2022-08-21T08:20:26;23.45;;;6.68;;
62572;SDS011;48626;51.678;5.806;2022-08-21T08:22:53;18.15;;;6.43;;
62572;SDS011;48626;51.678;5.806;2022-08-21T08:25:19;18.58;;;6.88;;
62572;SDS011;48626;51.678;5.806;2022-08-21T08:27:46;17.27;;;6.90;;
62572;SDS011;48626;51.678;5.806;2022-08-21T08:30:12;16.98;;;6.15;;
62572;SDS011;48626;51.678;5.806;2022-08-21T08:32:40;23.23;;;6.25;;
62572;SDS011;48626;51.678;5.806;2022-08-21T08:35:06;17.88;;;6.20;;
62572;SDS011;48626;51.678;5.806;2022-08-21T08:37:33;20.70;;;6.13;;
62572;SDS011;48626;51.678;5.806;2022-08-21T08:39:59;14.32;;;5.68;;
62572;SDS011;48626;51.678;5.806;2022-08-21T08:42:32;20.30;;;5.65;;
62572;SDS011;48626;51.678;5.806;2022-08-21T08:45:05;14.43;;;5.85;;
62572;SDS011;48626;51.678;5.806;2022-08-21T08:47:35;18.15;;;6.20;;
62572;SDS011;48626;51.678;5.806;2022-08-21T08:50:17;19.17;;;6.95;;
62572;SDS011;48626;51.678;5.806;2022-08-21T08:52:51;19.65;;;6.38;;
62572;SDS011;48626;51.678;5.806;2022-08-21T08:55:39;20.42;;;5.85;;
62572;SDS011;48626;51.678;5.806;2022-08-21T08:58:18;20.40;;;5.75;;
62572;SDS011;48626;51.678;5.806;2022-08-21T09:00:48;21.83;;;5.55;;
62572;SDS011;48626;51.678;5.806;2022-08-21T09:03:16;18.67;;;4.88;;
62572;SDS011;48626;51.678;5.806;2022-08-21T09:05:44;16.00;;;4.30;;
62572;SDS011;48626;51.678;5.806;2022-08-21T09:10:44;14.43;;;4.32;;
62572;SDS011;48626;51.678;5.806;2022-08-21T09:19:22;11.50;;;4.05;;
62572;SDS011;48626;51.678;5.806;2022-08-21T09:25:21;18.80;;;4.07;;
62572;SDS011;48626;51.678;5.806;2022-08-21T09:27:37;13.00;;;3.80;;
62572;SDS011;48626;51.678;5.806;2022-08-21T09:30:04;9.05;;;3.20;;
62572;SDS011;48626;51.678;5.806;2022-08-21T09:32:31;15.05;;;4.07;;
62572;SDS011;48626;51.678;5.806;2022-08-21T09:37:29;14.82;;;3.38;;
62572;SDS011;48626;51.678;5.806;2022-08-21T09:39:56;9.68;;;3.20;;
62572;SDS011;48626;51.678;5.806;2022-08-21T09:42:32;11.48;;;3.80;;
62572;SDS011;48626;51.678;5.806;2022-08-21T09:45:06;12.05;;;3.38;;
62572;SDS011;48626;51.678;5.806;2022-08-21T09:47:41;10.68;;;3.70;;
62572;SDS011;48626;51.678;5.806;2022-08-21T09:50:09;12.13;;;3.20;;
62572;SDS011;48626;51.678;5.806;2022-08-21T09:52:42;11.35;;;3.05;;
62572;SDS011;48626;51.678;5.806;2022-08-21T09:55:15;13.93;;;2.97;;
62572;SDS011;48626;51.678;5.806;2022-08-21T09:58:12;13.88;;;3.40;;
62572;SDS011;48626;51.678;5.806;2022-08-21T10:00:38;12.05;;;3.55;;
62572;SDS011;48626;51.678;5.806;2022-08-21T10:05:49;10.88;;;2.95;;
62572;SDS011;48626;51.678;5.806;2022-08-21T10:08:22;8.80;;;2.75;;
62572;SDS011;48626;51.678;5.806;2022-08-21T10:10:50;11.57;;;3.05;;
62572;SDS011;48626;51.678;5.806;2022-08-21T10:22:06;12.20;;;2.88;;
62572;SDS011;48626;51.678;5.806;2022-08-21T10:25:01;14.75;;;3.63;;
62572;SDS011;48626;51.678;5.806;2022-08-21T10:28:00;12.00;;;3.20;;
62572;SDS011;48626;51.678;5.806;2022-08-21T10:44:11;11.27;;;2.95;;
62572;SDS011;48626;51.678;5.806;2022-08-21T10:49:38;10.43;;;3.30;;
62572;SDS011;48626;51.678;5.806;2022-08-21T10:52:24;9.13;;;3.17;;
62572;SDS011;48626;51.678;5.806;2022-08-21T10:55:14;12.85;;;3.00;;
62572;SDS011;48626;51.678;5.806;2022-08-21T10:57:47;10.18;;;2.92;;
62572;SDS011;48626;51.678;5.806;2022-08-21T11:00:23;9.90;;;2.88;;
62572;SDS011;48626;51.678;5.806;2022-08-21T11:03:00;10.68;;;2.78;;
62572;SDS011;48626;51.678;5.806;2022-08-21T11:08:15;7.90;;;2.95;;
62572;SDS011;48626;51.678;5.806;2022-08-21T11:11:05;10.48;;;2.95;;
62572;SDS011;48626;51.678;5.806;2022-08-21T11:21:52;9.82;;;2.85;;
62572;SDS011;48626;51.678;5.806;2022-08-21T11:24:44;13.15;;;3.17;;
62572;SDS011;48626;51.678;5.806;2022-08-21T11:27:26;8.23;;;3.10;;
62572;SDS011;48626;51.678;5.806;2022-08-21T11:29:54;9.88;;;2.95;;
62572;SDS011;48626;51.678;5.806;2022-08-21T11:48:59;9.05;;;2.95;;
62572;SDS011;48626;51.678;5.806;2022-08-21T11:51:40;7.53;;;3.25;;
62572;SDS011;48626;51.678;5.806;2022-08-21T11:54:28;10.07;;;2.72;;
62572;SDS011;48626;51.678;5.806;2022-08-21T12:02:34;8.27;;;3.15;;
62572;SDS011;48626;51.678;5.806;2022-08-21T12:05:06;9.32;;;2.80;;
62572;SDS011;48626;51.678;5.806;2022-08-21T12:07:39;7.53;;;2.78;;
62572;SDS011;48626;51.678;5.806;2022-08-21T12:10:09;9.02;;;3.10;;
62572;SDS011;48626;51.678;5.806;2022-08-21T12:12:41;8.27;;;2.90;;
62572;SDS011;48626;51.678;5.806;2022-08-21T12:20:33;8.52;;;3.53;;
62572;SDS011;48626;51.678;5.806;2022-08-21T12:28:27;10.05;;;3.10;;
62572;SDS011;48626;51.678;5.806;2022-08-21T12:30:56;9.15;;;3.78;;
62572;SDS011;48626;51.678;5.806;2022-08-21T12:33:32;7.88;;;3.45;;
62572;SDS011;48626;51.678;5.806;2022-08-21T12:36:15;8.50;;;3.30;;
62572;SDS011;48626;51.678;5.806;2022-08-21T12:39:03;7.95;;;3.67;;
62572;SDS011;48626;51.678;5.806;2022-08-21T12:41:53;12.45;;;3.55;;
62572;SDS011;48626;51.678;5.806;2022-08-21T12:44:49;7.35;;;3.60;;
62572;SDS011;48626;51.678;5.806;2022-08-21T12:47:34;7.10;;;3.42;;
62572;SDS011;48626;51.678;5.806;2022-08-21T12:50:11;12.30;;;3.72;;
62572;SDS011;48626;51.678;5.806;2022-08-21T12:52:47;5.93;;;2.92;;
62572;SDS011;48626;51.678;5.806;2022-08-21T12:55:25;10.32;;;3.50;;
62572;SDS011;48626;51.678;5.806;2022-08-21T12:57:54;12.52;;;3.80;;
62572;SDS011;48626;51.678;5.806;2022-08-21T13:00:24;11.88;;;3.60;;
62572;SDS011;48626;51.678;5.806;2022-08-21T13:02:52;9.55;;;3.33;;
62572;SDS011;48626;51.678;5.806;2022-08-21T13:05:33;9.77;;;3.10;;
62572;SDS011;48626;51.678;5.806;2022-08-21T13:08:07;9.95;;;3.28;;
62572;SDS011;48626;51.678;5.806;2022-08-21T13:10:36;8.65;;;3.00;;
62572;SDS011;48626;51.678;5.806;2022-08-21T13:13:05;9.30;;;3.13;;
62572;SDS011;48626;51.678;5.806;2022-08-21T13:15:35;9.45;;;3.38;;
62572;SDS011;48626;51.678;5.806;2022-08-21T13:18:05;7.18;;;2.80;;
62572;SDS011;48626;51.678;5.806;2022-08-21T13:20:35;10.73;;;2.92;;
62572;SDS011;48626;51.678;5.806;2022-08-21T13:23:05;8.52;;;3.00;;
62572;SDS011;48626;51.678;5.806;2022-08-21T13:25:40;8.00;;;2.93;;
62572;SDS011;48626;51.678;5.806;2022-08-21T13:28:08;7.90;;;2.85;;
62572;SDS011;48626;51.678;5.806;2022-08-21T13:30:40;7.53;;;3.05;;
62572;SDS011;48626;51.678;5.806;2022-08-21T13:33:08;5.43;;;2.67;;
62572;SDS011;48626;51.678;5.806;2022-08-21T13:38:18;6.95;;;2.75;;
62572;SDS011;48626;51.678;5.806;2022-08-21T13:40:49;8.90;;;2.58;;
62572;SDS011;48626;51.678;5.806;2022-08-21T13:43:18;12.32;;;3.60;;
62572;SDS011;48626;51.678;5.806;2022-08-21T13:45:48;7.78;;;3.10;;
62572;SDS011;48626;51.678;5.806;2022-08-21T13:48:18;6.95;;;2.80;;
62572;SDS011;48626;51.678;5.806;2022-08-21T13:50:46;14.48;;;6.63;;
62572;SDS011;48626;51.678;5.806;2022-08-21T13:53:20;17.27;;;8.73;;
62572;SDS011;48626;51.678;5.806;2022-08-21T13:56:04;9.35;;;4.00;;
62572;SDS011;48626;51.678;5.806;2022-08-21T13:58:52;11.15;;;3.65;;
62572;SDS011;48626;51.678;5.806;2022-08-21T14:01:21;9.73;;;3.60;;
62572;SDS011;48626;51.678;5.806;2022-08-21T14:03:54;8.43;;;2.83;;
62572;SDS011;48626;51.678;5.806;2022-08-21T14:06:35;13.50;;;5.90;;
62572;SDS011;48626;51.678;5.806;2022-08-21T14:09:12;11.88;;;5.60;;
62572;SDS011;48626;51.678;5.806;2022-08-21T14:11:49;12.48;;;4.20;;
62572;SDS011;48626;51.678;5.806;2022-08-21T14:14:19;8.68;;;4.82;;
62572;SDS011;48626;51.678;5.806;2022-08-21T14:16:47;8.98;;;2.80;;
62572;SDS011;48626;51.678;5.806;2022-08-21T14:19:23;21.25;;;11.90;;
62572;SDS011;48626;51.678;5.806;2022-08-21T14:21:51;12.40;;;3.85;;
62572;SDS011;48626;51.678;5.806;2022-08-21T14:26:52;36.35;;;24.35;;
62572;SDS011;48626;51.678;5.806;2022-08-21T14:29:26;14.20;;;7.23;;
62572;SDS011;48626;51.678;5.806;2022-08-21T14:31:58;13.35;;;4.53;;
62572;SDS011;48626;51.678;5.806;2022-08-21T14:34:32;19.40;;;11.38;;
62572;SDS011;48626;51.678;5.806;2022-08-21T14:36:58;12.35;;;4.55;;
62572;SDS011;48626;51.678;5.806;2022-08-21T14:39:24;42.83;;;31.15;;
62572;SDS011;48626;51.678;5.806;2022-08-21T14:41:49;16.45;;;6.97;;
62572;SDS011;48626;51.678;5.806;2022-08-21T14:44:17;7.78;;;3.70;;
62572;SDS011;48626;51.678;5.806;2022-08-21T14:46:44;8.80;;;3.10;;
62572;SDS011;48626;51.678;5.806;2022-08-21T14:49:10;8.50;;;3.03;;
62572;SDS011;48626;51.678;5.806;2022-08-21T14:51:36;6.18;;;2.65;;
62572;SDS011;48626;51.678;5.806;2022-08-21T14:54:04;7.60;;;2.65;;
62572;SDS011;48626;51.678;5.806;2022-08-21T14:56:30;9.45;;;2.83;;
62572;SDS011;48626;51.678;5.806;2022-08-21T14:58:58;11.13;;;3.47;;
62572;SDS011;48626;51.678;5.806;2022-08-21T15:01:28;13.27;;;4.60;;
62572;SDS011;48626;51.678;5.806;2022-08-21T15:03:54;8.52;;;3.17;;
62572;SDS011;48626;51.678;5.806;2022-08-21T15:06:19;13.13;;;4.63;;
62572;SDS011;48626;51.678;5.806;2022-08-21T15:08:46;7.25;;;3.17;;
62572;SDS011;48626;51.678;5.806;2022-08-21T15:11:15;7.18;;;2.90;;
62572;SDS011;48626;51.678;5.806;2022-08-21T15:13:42;7.63;;;2.65;;
62572;SDS011;48626;51.678;5.806;2022-08-21T15:16:09;8.40;;;2.60;;
62572;SDS011;48626;51.678;5.806;2022-08-21T15:18:36;8.00;;;2.78;;
62572;SDS011;48626;51.678;5.806;2022-08-21T15:21:02;17.30;;;7.82;;
62572;SDS011;48626;51.678;5.806;2022-08-21T15:23:27;12.60;;;4.47;;
62572;SDS011;48626;51.678;5.806;2022-08-21T15:25:53;9.20;;;3.28;;
62572;SDS011;48626;51.678;5.806;2022-08-21T15:28:20;7.93;;;3.40;;
62572;SDS011;48626;51.678;5.806;2022-08-21T15:30:46;15.88;;;3.50;;
62572;SDS011;48626;51.678;5.806;2022-08-21T15:33:12;13.63;;;3.67;;
62572;SDS011;48626;51.678;5.806;2022-08-21T15:35:38;25.33;;;13.88;;
62572;SDS011;48626;51.678;5.806;2022-08-21T15:38:05;61.30;;;41.22;;
62572;SDS011;48626;51.678;5.806;2022-08-21T15:40:30;90.90;;;57.25;;
62572;SDS011;48626;51.678;5.806;2022-08-21T15:43:00;92.18;;;58.78;;
62572;SDS011;48626;51.678;5.806;2022-08-21T15:45:28;127.32;;;83.57;;
62572;SDS011;48626;51.678;5.806;2022-08-21T15:47:54;185.38;;;129.30;;
62572;SDS011;48626;51.678;5.806;2022-08-21T15:50:21;51.88;;;26.50;;
62572;SDS011;48626;51.678;5.806;2022-08-21T15:52:48;48.67;;;25.83;;
62572;SDS011;48626;51.678;5.806;2022-08-21T15:55:14;90.22;;;43.47;;
62572;SDS011;48626;51.678;5.806;2022-08-21T15:57:44;110.93;;;53.00;;
62572;SDS011;48626;51.678;5.806;2022-08-21T16:00:13;153.38;;;70.90;;
62572;SDS011;48626;51.678;5.806;2022-08-21T16:02:44;237.43;;;131.93;;
62572;SDS011;48626;51.678;5.806;2022-08-21T16:05:12;139.48;;;73.90;;
62572;SDS011;48626;51.678;5.806;2022-08-21T16:07:41;68.20;;;34.42;;
62572;SDS011;48626;51.678;5.806;2022-08-21T16:10:07;19.27;;;7.68;;
62572;SDS011;48626;51.678;5.806;2022-08-21T16:12:34;9.30;;;3.55;;
62572;SDS011;48626;51.678;5.806;2022-08-21T16:15:04;9.48;;;3.10;;
62572;SDS011;48626;51.678;5.806;2022-08-21T16:17:34;7.82;;;3.47;;